createdAt,value
2023-08-29T00:02:23.331Z,100591.41
2023-08-29T00:04:49.761Z,100578.31
2023-08-29T00:07:16.205Z,100580.38
2023-08-29T00:09:42.752Z,100571.31
2023-08-29T00:12:09.361Z,100571.25
2023-08-29T00:14:35.832Z,100573.47
2023-08-29T00:17:02.234Z,100570.97
2023-08-29T00:19:28.675Z,100576.69
2023-08-29T00:21:55.065Z,100577.63
2023-08-29T00:24:21.403Z,100581.50
2023-08-29T00:26:47.801Z,100588.88
2023-08-29T00:29:14.259Z,100590.94
2023-08-29T00:31:40.737Z,100579.41
2023-08-29T00:34:07.178Z,100570.53
2023-08-29T00:36:33.558Z,100563.19
2023-08-29T00:39:00.127Z,100558.16
2023-08-29T00:41:26.505Z,100583.66
2023-08-29T00:43:52.905Z,100578.44
2023-08-29T00:46:20.640Z,100571.72
2023-08-29T00:48:47.971Z,100567.66
2023-08-29T00:51:14.422Z,100564.47
2023-08-29T00:53:41.009Z,100572.09
2023-08-29T00:56:07.408Z,100574.47
2023-08-29T00:58:35.012Z,100585.53
2023-08-29T01:01:01.514Z,100594.91
2023-08-29T01:03:28.088Z,100591.16
2023-08-29T01:05:54.601Z,100581.44
2023-08-29T01:08:21.080Z,100583.84
2023-08-29T01:11:17.210Z,100587.09
2023-08-29T01:14:07.536Z,100590.16
2023-08-29T01:16:41.511Z,100597.81
2023-08-29T01:19:16.883Z,100604.25
2023-08-29T01:21:50.258Z,100605.84
2023-08-29T01:24:27.350Z,100611.06
2023-08-29T01:26:55.873Z,100608.06
2023-08-29T01:29:23.409Z,100612.19
2023-08-29T01:31:51.414Z,100614.22
2023-08-29T01:34:18.094Z,100617.13
2023-08-29T01:36:44.740Z,100617.97
2023-08-29T01:39:11.418Z,100624.78
2023-08-29T01:41:37.805Z,100627.44
2023-08-29T01:44:06.355Z,100625.94
2023-08-29T01:46:32.911Z,100621.44
2023-08-29T01:49:02.403Z,100631.38
2023-08-29T01:51:29.224Z,100635.06
2023-08-29T01:53:55.971Z,100640.25
2023-08-29T01:56:25.381Z,100638.75
2023-08-29T01:58:54.596Z,100642.19
2023-08-29T02:01:23.842Z,100629.50
2023-08-29T02:03:51.427Z,100646.50
2023-08-29T02:06:17.888Z,100647.34
2023-08-29T02:08:45.627Z,100641.88
2023-08-29T02:11:12.057Z,100642.41
2023-08-29T02:13:38.413Z,100643.97
2023-08-29T02:16:05.014Z,100635.81
2023-08-29T02:18:31.412Z,100635.06
2023-08-29T02:20:57.785Z,100630.09
2023-08-29T02:23:24.237Z,100620.56
2023-08-29T02:26:04.871Z,100612.78
2023-08-29T02:28:34.960Z,100618.34
2023-08-29T02:31:10.948Z,100621.38
2023-08-29T02:33:39.342Z,100615.88
2023-08-29T02:36:06.570Z,100603.94
2023-08-29T02:38:34.337Z,100606.81
2023-08-29T02:41:01.019Z,100601.41
2023-08-29T02:43:30.674Z,100592.88
2023-08-29T02:45:58.304Z,100594.00
2023-08-29T02:48:25.293Z,100591.81
2023-08-29T02:50:52.142Z,100578.75
2023-08-29T02:53:19.798Z,100576.97
2023-08-29T02:55:46.695Z,100577.81
2023-08-29T02:58:13.356Z,100573.47
2023-08-29T03:00:39.854Z,100568.09
2023-08-29T03:03:06.383Z,100573.59
2023-08-29T03:05:33.532Z,100569.16
2023-08-29T03:08:09.413Z,100568.94
2023-08-29T03:10:37.080Z,100573.09
2023-08-29T03:13:03.958Z,100563.56
2023-08-29T03:15:34.419Z,100559.44
2023-08-29T03:18:01.455Z,100560.88
2023-08-29T03:20:28.250Z,100555.59
2023-08-29T03:22:54.753Z,100552.81
2023-08-29T03:25:23.253Z,100556.53
2023-08-29T03:27:50.237Z,100553.75
2023-08-29T03:30:16.949Z,100546.31
2023-08-29T03:32:43.437Z,100544.97
2023-08-29T03:35:09.825Z,100550.75
2023-08-29T03:37:36.235Z,100549.22
2023-08-29T03:40:03.990Z,100550.00
2023-08-29T03:42:30.352Z,100545.81
2023-08-29T03:44:56.858Z,100546.72
2023-08-29T03:47:25.058Z,100543.22
2023-08-29T03:49:51.517Z,100544.38
2023-08-29T03:52:25.233Z,100536.69
2023-08-29T03:54:56.709Z,100541.78
2023-08-29T03:57:29.481Z,100542.63
2023-08-29T03:59:56.650Z,100543.84
2023-08-29T04:02:23.115Z,100554.84
2023-08-29T04:04:52.471Z,100553.44
2023-08-29T04:07:19.728Z,100555.84
2023-08-29T04:09:46.184Z,100555.78
2023-08-29T04:12:12.607Z,100557.78
2023-08-29T04:14:38.946Z,100560.94
2023-08-29T04:17:05.372Z,100565.63
2023-08-29T04:19:31.811Z,100557.53
2023-08-29T04:21:58.167Z,100554.13
2023-08-29T04:24:26.717Z,100558.56
2023-08-29T04:26:53.969Z,100553.25
2023-08-29T04:29:20.384Z,100551.47
2023-08-29T04:31:48.060Z,100553.00
2023-08-29T04:34:14.488Z,100552.31
2023-08-29T04:36:40.983Z,100554.53
2023-08-29T04:39:07.352Z,100556.53
2023-08-29T04:41:33.753Z,100559.09
2023-08-29T04:44:00.426Z,100551.38
2023-08-29T04:46:26.797Z,100555.91
2023-08-29T04:48:53.178Z,100551.91
2023-08-29T04:51:19.547Z,100551.16
2023-08-29T04:53:48.062Z,100553.63
2023-08-29T04:56:14.447Z,100553.94
2023-08-29T04:58:40.824Z,100552.41
2023-08-29T05:01:07.261Z,100555.06
2023-08-29T05:03:33.859Z,100556.00
2023-08-29T05:06:00.262Z,100561.81
2023-08-29T05:08:26.671Z,100563.72
2023-08-29T05:10:53.020Z,100556.84
2023-08-29T05:13:19.412Z,100563.72
2023-08-29T05:15:45.807Z,100563.25
2023-08-29T05:18:12.315Z,100556.94
2023-08-29T05:20:39.407Z,100556.53
2023-08-29T05:23:06.074Z,100556.53
2023-08-29T05:25:32.564Z,100563.38
2023-08-29T05:27:58.960Z,100565.84
2023-08-29T05:30:25.359Z,100561.09
2023-08-29T05:32:51.785Z,100559.03
2023-08-29T05:35:18.290Z,100564.25
2023-08-29T05:37:45.432Z,100563.91
2023-08-29T05:40:14.823Z,100564.94
2023-08-29T05:42:41.231Z,100575.00
2023-08-29T05:45:09.784Z,100575.94
2023-08-29T05:47:36.273Z,100576.53
2023-08-29T05:50:02.762Z,100570.25
2023-08-29T05:52:29.542Z,100570.06
2023-08-29T05:54:57.009Z,100565.47
2023-08-29T05:57:23.390Z,100560.34
2023-08-29T05:59:50.425Z,100560.00
2023-08-29T06:02:16.848Z,100563.59
2023-08-29T06:04:43.240Z,100572.09
2023-08-29T06:07:10.486Z,100565.34
2023-08-29T06:09:37.527Z,100566.13
2023-08-29T06:12:04.230Z,100566.19
2023-08-29T06:14:32.003Z,100558.19
2023-08-29T06:16:58.872Z,100558.53
2023-08-29T06:19:25.400Z,100560.66
2023-08-29T06:21:52.219Z,100561.75
2023-08-29T06:24:18.691Z,100573.22
2023-08-29T06:26:45.047Z,100568.78
2023-08-29T06:29:11.780Z,100566.13
2023-08-29T06:31:38.187Z,100567.34
2023-08-29T06:34:04.945Z,100565.09
2023-08-29T06:36:32.077Z,100572.69
2023-08-29T06:38:58.418Z,100567.72
2023-08-29T06:41:25.492Z,100571.53
2023-08-29T06:43:51.830Z,100567.28
2023-08-29T06:46:18.534Z,100572.19
2023-08-29T06:48:44.967Z,100571.69
2023-08-29T06:51:11.373Z,100564.03
2023-08-29T06:53:38.511Z,100569.34
2023-08-29T06:56:05.300Z,100560.78
2023-08-29T06:58:31.968Z,100566.13
2023-08-29T07:00:58.372Z,100568.72
2023-08-29T07:03:24.934Z,100572.34
2023-08-29T07:05:51.460Z,100568.09
2023-08-29T07:08:17.811Z,100568.81
2023-08-29T07:10:44.389Z,100565.53
2023-08-29T07:13:10.753Z,100562.81
2023-08-29T07:15:37.177Z,100559.28
2023-08-29T07:18:06.799Z,100563.38
2023-08-29T07:20:34.725Z,100562.00
2023-08-29T07:23:01.589Z,100563.94
2023-08-29T07:25:42.284Z,100564.09
2023-08-29T07:28:10.581Z,100568.84
2023-08-29T07:30:47.733Z,100567.81
2023-08-29T07:33:15.312Z,100567.72
2023-08-29T07:35:43.355Z,100562.63
2023-08-29T07:38:10.807Z,100562.88
2023-08-29T07:40:37.653Z,100564.22
2023-08-29T07:43:05.880Z,100573.25
2023-08-29T07:45:33.131Z,100565.72
2023-08-29T07:48:00.795Z,100570.38
2023-08-29T07:50:28.459Z,100575.78
2023-08-29T07:52:56.018Z,100570.00
2023-08-29T07:55:22.467Z,100579.28
2023-08-29T07:57:49.688Z,100574.63
2023-08-29T08:00:17.418Z,100578.28
2023-08-29T08:02:44.806Z,100581.38
2023-08-29T08:05:16.282Z,100580.59
2023-08-29T08:07:45.375Z,100583.25
2023-08-29T08:10:13.682Z,100581.53
2023-08-29T08:12:41.682Z,100584.97
2023-08-29T08:15:09.609Z,100584.38
2023-08-29T08:17:37.504Z,100592.38
2023-08-29T08:20:09.516Z,100585.28
2023-08-29T08:22:41.470Z,100596.34
2023-08-29T08:25:11.686Z,100604.88
2023-08-29T08:27:42.583Z,100597.47
2023-08-29T08:30:12.324Z,100606.06
2023-08-29T08:32:38.848Z,100598.94
2023-08-29T08:35:08.679Z,100600.69
2023-08-29T08:37:36.397Z,100600.88
2023-08-29T08:40:11.743Z,100597.69
2023-08-29T08:42:40.888Z,100596.00
2023-08-29T08:45:08.590Z,100602.41
2023-08-29T08:47:36.369Z,100601.56
2023-08-29T08:50:04.232Z,100595.53
2023-08-29T08:52:35.048Z,100601.91
2023-08-29T08:55:05.694Z,100596.38
2023-08-29T08:57:33.197Z,100593.09
2023-08-29T08:59:59.592Z,100598.34
2023-08-29T09:02:27.225Z,100602.00
2023-08-29T09:04:54.858Z,100605.41
2023-08-29T09:07:21.285Z,100601.69
2023-08-29T09:10:11.630Z,100602.94
2023-08-29T09:12:50.526Z,100600.41
2023-08-29T09:15:21.195Z,100598.19
2023-08-29T09:17:52.725Z,100603.22
2023-08-29T09:20:20.007Z,100590.56
2023-08-29T09:22:47.276Z,100600.69
2023-08-29T09:25:15.615Z,100595.38
2023-08-29T09:27:46.766Z,100600.94
2023-08-29T09:30:15.411Z,100606.91
2023-08-29T09:32:50.457Z,100606.38
2023-08-29T09:35:20.638Z,100599.72
2023-08-29T09:37:52.645Z,100601.56
2023-08-29T09:40:36.259Z,100597.09
2023-08-29T09:43:05.672Z,100594.13
2023-08-29T09:45:33.939Z,100602.97
2023-08-29T09:48:05.200Z,100601.16
2023-08-29T09:50:32.416Z,100601.38
2023-08-29T09:53:00.791Z,100597.09
2023-08-29T09:55:27.816Z,100597.44
2023-08-29T09:57:54.966Z,100593.13
2023-08-29T10:00:22.189Z,100584.13
2023-08-29T10:02:51.715Z,100585.00
2023-08-29T10:05:25.098Z,100590.00
2023-08-29T10:07:56.671Z,100583.44
2023-08-29T10:10:25.153Z,100580.94
2023-08-29T10:12:52.183Z,100589.16
2023-08-29T10:15:19.685Z,100590.69
2023-08-29T10:17:49.700Z,100590.03
2023-08-29T10:20:18.365Z,100587.72
2023-08-29T10:22:47.666Z,100591.78
2023-08-29T10:25:19.709Z,100586.13
2023-08-29T10:27:46.681Z,100581.06
2023-08-29T10:30:13.477Z,100579.91
2023-08-29T10:32:40.622Z,100579.50
2023-08-29T10:35:08.690Z,100576.09
2023-08-29T10:37:35.296Z,100571.97
2023-08-29T10:40:12.922Z,100570.28
2023-08-29T10:42:58.498Z,100558.19
2023-08-29T10:45:58.185Z,100561.13
2023-08-29T10:48:31.180Z,100555.09
2023-08-29T10:51:18.371Z,100555.19
2023-08-29T10:53:57.982Z,100552.22
2023-08-29T10:56:28.881Z,100556.84
2023-08-29T10:58:56.140Z,100551.94
2023-08-29T11:01:25.336Z,100544.28
2023-08-29T11:03:52.121Z,100543.78
2023-08-29T11:06:20.831Z,100544.47
2023-08-29T11:08:47.472Z,100533.94
2023-08-29T11:11:19.806Z,100530.91
2023-08-29T11:14:02.702Z,100532.72
2023-08-29T11:16:31.601Z,100520.88
2023-08-29T11:19:07.838Z,100536.03
2023-08-29T11:21:34.445Z,100527.38
2023-08-29T11:24:14.853Z,100526.72
2023-08-29T11:26:45.841Z,100530.88
2023-08-29T11:29:12.283Z,100537.97
2023-08-29T11:31:44.045Z,100533.47
2023-08-29T11:34:18.885Z,100528.34
2023-08-29T11:36:50.355Z,100525.09
2023-08-29T11:39:19.680Z,100528.25
2023-08-29T11:42:05.315Z,100522.25
2023-08-29T11:45:41.900Z,100527.44
2023-08-29T11:47:22.787Z,100522.97
2023-08-29T11:49:50.357Z,100526.72
2023-08-29T11:52:17.906Z,100523.28
2023-08-29T11:54:54.046Z,100520.13
2023-08-29T11:57:21.835Z,100518.97
2023-08-29T11:59:51.484Z,100519.25
2023-08-29T12:02:20.509Z,100518.22
2023-08-29T12:04:48.782Z,100512.44
2023-08-29T12:07:19.277Z,100510.59
2023-08-29T12:09:47.745Z,100505.22
2023-08-29T12:12:34.731Z,100502.94
2023-08-29T12:15:01.739Z,100498.16
2023-08-29T12:17:39.900Z,100487.19
2023-08-29T12:20:16.541Z,100498.66
2023-08-29T12:22:49.058Z,100495.19
2023-08-29T12:25:17.220Z,100493.53
2023-08-29T12:27:45.587Z,100488.03
2023-08-29T12:30:15.861Z,100485.00
2023-08-29T12:32:43.913Z,100489.56
2023-08-29T12:35:11.363Z,100486.41
2023-08-29T12:37:38.775Z,100482.50
2023-08-29T12:40:09.851Z,100484.56
2023-08-29T12:42:38.777Z,100469.53
2023-08-29T12:45:07.302Z,100471.19
2023-08-29T12:47:33.802Z,100459.78
2023-08-29T12:50:00.236Z,100462.56
2023-08-29T12:52:26.717Z,100465.91
2023-08-29T12:54:53.129Z,100457.13
2023-08-29T12:57:20.784Z,100460.53
2023-08-29T12:59:47.243Z,100455.72
2023-08-29T13:02:13.660Z,100463.41
2023-08-29T13:04:40.402Z,100448.59
2023-08-29T13:07:06.894Z,100448.31
2023-08-29T13:09:38.115Z,100438.84
2023-08-29T13:12:07.487Z,100449.38
2023-08-29T13:14:38.636Z,100457.00
2023-08-29T13:17:06.433Z,100457.72
2023-08-29T13:19:34.037Z,100451.03
2023-08-29T13:22:02.400Z,100453.06
2023-08-29T13:24:29.843Z,100442.50
2023-08-29T13:26:56.352Z,100441.69
2023-08-29T13:29:22.961Z,100450.59
2023-08-29T13:31:51.025Z,100444.50
2023-08-29T13:34:19.808Z,100444.63
2023-08-29T13:36:46.417Z,100439.72
2023-08-29T13:39:13.672Z,100436.75
2023-08-29T13:41:40.974Z,100440.56
2023-08-29T13:44:07.348Z,100433.19
2023-08-29T13:46:33.752Z,100431.78
2023-08-29T13:49:00.125Z,100438.50
2023-08-29T13:51:26.515Z,100429.41
2023-08-29T13:53:53.842Z,100440.69
2023-08-29T13:56:20.212Z,100432.09
2023-08-29T13:58:46.644Z,100429.66
2023-08-29T14:01:14.922Z,100430.88
2023-08-29T14:03:41.498Z,100430.78
2023-08-29T14:06:08.192Z,100427.44
2023-08-29T14:08:34.935Z,100426.44
2023-08-29T14:11:06.412Z,100429.41
2023-08-29T14:13:34.361Z,100428.97
2023-08-29T14:16:04.260Z,100426.75
2023-08-29T14:18:37.190Z,100426.53
2023-08-29T14:21:03.949Z,100424.72
2023-08-29T14:23:30.559Z,100429.19
2023-08-29T14:25:57.678Z,100427.47
2023-08-29T14:28:26.846Z,100429.66
2023-08-29T14:30:53.904Z,100429.81
2023-08-29T14:33:20.367Z,100435.00
2023-08-29T14:35:46.814Z,100426.91
2023-08-29T14:38:14.216Z,100433.13
2023-08-29T14:40:40.829Z,100422.75
2023-08-29T14:43:07.231Z,100427.72
2023-08-29T14:45:37.656Z,100436.53
2023-08-29T14:48:04.641Z,100435.22
2023-08-29T14:50:31.414Z,100433.56
2023-08-29T14:52:57.778Z,100433.22
2023-08-29T14:55:25.933Z,100430.66
2023-08-29T14:57:54.262Z,100433.06
2023-08-29T15:00:21.026Z,100428.63
2023-08-29T15:02:47.632Z,100425.78
2023-08-29T15:05:14.522Z,100433.03
2023-08-29T15:07:41.895Z,100429.97
2023-08-29T15:10:09.257Z,100425.59
2023-08-29T15:12:36.028Z,100439.13
2023-08-29T15:15:02.499Z,100427.91
2023-08-29T15:17:31.247Z,100428.00
2023-08-29T15:19:58.268Z,100428.69
2023-08-29T15:22:24.867Z,100425.31
2023-08-29T15:24:51.333Z,100429.91
2023-08-29T15:27:17.915Z,100411.97
2023-08-29T15:29:44.367Z,100423.31
2023-08-29T15:32:10.981Z,100426.25
2023-08-29T15:34:37.564Z,100426.13
2023-08-29T15:37:05.581Z,100423.91
2023-08-29T15:39:33.682Z,100420.59
2023-08-29T15:42:00.378Z,100416.75
2023-08-29T15:44:31.081Z,100406.88
2023-08-29T15:46:57.929Z,100406.66
2023-08-29T15:49:24.276Z,100410.09
2023-08-29T15:51:50.716Z,100408.41
2023-08-29T15:54:18.987Z,100409.75
2023-08-29T15:56:45.604Z,100404.31
2023-08-29T15:59:12.081Z,100396.16
2023-08-29T16:01:38.555Z,100400.63
2023-08-29T16:04:05.968Z,100406.31
2023-08-29T16:06:32.435Z,100395.31
2023-08-29T16:09:01.005Z,100406.47
2023-08-29T16:11:27.730Z,100404.22
2023-08-29T16:13:54.282Z,100401.41
2023-08-29T16:16:20.677Z,100394.22
2023-08-29T16:18:47.292Z,100405.78
2023-08-29T16:21:16.469Z,100404.84
2023-08-29T16:23:46.284Z,100408.13
2023-08-29T16:26:21.944Z,100408.00
2023-08-29T16:28:49.085Z,100414.09
2023-08-29T16:31:15.516Z,100415.34
2023-08-29T16:33:42.082Z,100403.69
2023-08-29T16:36:09.084Z,100412.63
2023-08-29T16:38:35.663Z,100409.09
2023-08-29T16:41:03.212Z,100410.72
2023-08-29T16:43:29.695Z,100414.03
2023-08-29T16:45:56.539Z,100412.66
2023-08-29T16:48:22.958Z,100408.75
2023-08-29T16:50:50.929Z,100409.88
2023-08-29T16:53:19.030Z,100405.88
2023-08-29T16:55:46.107Z,100415.06
2023-08-29T16:58:13.032Z,100418.75
2023-08-29T17:00:39.786Z,100420.69
2023-08-29T17:03:11.099Z,100420.75
2023-08-29T17:05:38.779Z,100425.44
2023-08-29T17:08:08.873Z,100422.47
2023-08-29T17:10:35.688Z,100423.72
2023-08-29T17:13:02.230Z,100425.84
2023-08-29T17:15:29.029Z,100423.19
2023-08-29T17:17:55.506Z,100428.75
2023-08-29T17:20:23.599Z,100427.06
2023-08-29T17:22:50.462Z,100422.84
2023-08-29T17:25:17.345Z,100422.59
2023-08-29T17:27:43.936Z,100420.31
2023-08-29T17:30:12.607Z,100428.53
2023-08-29T17:32:39.340Z,100433.38
2023-08-29T17:35:06.231Z,100417.97
2023-08-29T17:37:34.502Z,100418.09
2023-08-29T17:40:01.777Z,100424.66
2023-08-29T17:42:28.190Z,100422.59
2023-08-29T17:44:56.719Z,100425.63
2023-08-29T17:47:23.268Z,100427.06
2023-08-29T17:49:52.023Z,100423.38
2023-08-29T17:52:18.498Z,100417.06
2023-08-29T17:54:45.039Z,100420.72
2023-08-29T17:57:11.597Z,100419.34
2023-08-29T17:59:38.180Z,100411.72
2023-08-29T18:02:05.276Z,100412.91
2023-08-29T18:04:32.157Z,100419.25
2023-08-29T18:06:58.589Z,100414.81
2023-08-29T18:09:24.946Z,100416.03
2023-08-29T18:11:51.364Z,100424.09
2023-08-29T18:14:17.724Z,100419.47
2023-08-29T18:16:45.238Z,100415.91
2023-08-29T18:19:11.867Z,100410.53
2023-08-29T18:21:39.080Z,100413.97
2023-08-29T18:24:05.728Z,100403.41
2023-08-29T18:26:32.907Z,100411.94
2023-08-29T18:28:59.339Z,100408.03
2023-08-29T18:31:25.702Z,100406.06
2023-08-29T18:33:52.208Z,100408.75
2023-08-29T18:36:18.563Z,100413.25
2023-08-29T18:38:45.111Z,100410.34
2023-08-29T18:41:11.502Z,100411.19
2023-08-29T18:43:39.791Z,100413.75
2023-08-29T18:46:08.146Z,100411.97
2023-08-29T18:48:34.702Z,100418.81
2023-08-29T18:51:01.138Z,100430.44
2023-08-29T18:53:27.901Z,100436.28
2023-08-29T18:55:54.386Z,100437.78
2023-08-29T18:58:20.959Z,100435.34
2023-08-29T19:00:47.442Z,100439.28
2023-08-29T19:03:13.841Z,100440.66
2023-08-29T19:05:41.082Z,100447.34
2023-08-29T19:08:07.795Z,100452.66
2023-08-29T19:10:34.562Z,100442.31
2023-08-29T19:13:01.744Z,100454.28
2023-08-29T19:15:28.211Z,100453.44
2023-08-29T19:17:54.649Z,100458.31
2023-08-29T19:20:21.158Z,100456.44
2023-08-29T19:22:47.687Z,100448.47
2023-08-29T19:25:14.148Z,100450.97
2023-08-29T19:27:40.534Z,100447.97
2023-08-29T19:30:09.802Z,100448.50
2023-08-29T19:32:37.425Z,100447.44
2023-08-29T19:35:05.046Z,100450.44
2023-08-29T19:37:32.278Z,100450.00
2023-08-29T19:39:58.685Z,100454.38
2023-08-29T19:42:25.153Z,100453.81
2023-08-29T19:44:52.094Z,100446.44
2023-08-29T19:47:20.148Z,100451.50
2023-08-29T19:49:48.406Z,100448.78
2023-08-29T19:52:15.061Z,100450.34
2023-08-29T19:54:42.061Z,100442.22
2023-08-29T19:57:08.491Z,100447.16
2023-08-29T19:59:36.355Z,100445.13
2023-08-29T20:02:03.106Z,100444.28
2023-08-29T20:04:29.621Z,100441.75
2023-08-29T20:06:56.177Z,100438.03
2023-08-29T20:09:23.626Z,100444.78
2023-08-29T20:11:50.123Z,100428.72
2023-08-29T20:14:16.545Z,100438.56
2023-08-29T20:16:43.877Z,100430.38
2023-08-29T20:19:10.659Z,100442.84
2023-08-29T20:21:37.312Z,100445.50
2023-08-29T20:24:04.614Z,100441.13
2023-08-29T20:26:32.586Z,100441.97
2023-08-29T20:29:00.701Z,100435.44
2023-08-29T20:31:27.514Z,100442.19
2023-08-29T20:33:54.150Z,100439.44
2023-08-29T20:36:20.605Z,100446.94
2023-08-29T20:38:47.102Z,100443.78
2023-08-29T20:41:14.190Z,100446.03
2023-08-29T20:43:40.704Z,100456.44
2023-08-29T20:46:08.316Z,100447.94
2023-08-29T20:48:35.072Z,100446.53
2023-08-29T20:51:02.557Z,100444.66
2023-08-29T20:53:31.939Z,100442.03
2023-08-29T20:55:59.167Z,100442.25
2023-08-29T20:58:27.186Z,100437.97
2023-08-29T21:01:00.776Z,100440.34
2023-08-29T21:03:29.100Z,100436.38
2023-08-29T21:05:56.199Z,100426.50
2023-08-29T21:08:24.110Z,100433.50
2023-08-29T21:10:51.623Z,100431.44
2023-08-29T21:13:18.132Z,100434.78
2023-08-29T21:15:45.851Z,100431.69
2023-08-29T21:18:16.397Z,100445.78
2023-08-29T21:20:53.599Z,100446.66
2023-08-29T21:23:20.006Z,100437.47
2023-08-29T21:25:50.553Z,100443.84
2023-08-29T21:28:18.122Z,100438.09
2023-08-29T21:30:45.944Z,100436.16
2023-08-29T21:33:13.229Z,100440.13
2023-08-29T21:35:40.786Z,100437.69
2023-08-29T21:38:08.485Z,100443.41
2023-08-29T21:40:40.523Z,100432.81
2023-08-29T21:43:11.731Z,100433.81
2023-08-29T21:45:40.035Z,100430.31
2023-08-29T21:48:08.211Z,100424.31
2023-08-29T21:50:39.233Z,100428.50
2023-08-29T21:53:10.592Z,100432.13
2023-08-29T21:55:38.483Z,100431.16
2023-08-29T21:58:06.347Z,100424.91
2023-08-29T22:00:34.258Z,100432.88
2023-08-29T22:03:02.266Z,100430.34
2023-08-29T22:05:30.231Z,100427.06
2023-08-29T22:07:57.392Z,100428.22
2023-08-29T22:10:24.327Z,100423.41
2023-08-29T22:12:51.280Z,100414.28
2023-08-29T22:15:18.110Z,100420.16
2023-08-29T22:17:46.137Z,100415.03
2023-08-29T22:20:13.481Z,100407.19
2023-08-29T22:22:40.421Z,100411.09
2023-08-29T22:25:07.428Z,100420.34
2023-08-29T22:27:33.918Z,100406.34
2023-08-29T22:30:00.404Z,100412.69
2023-08-29T22:32:26.967Z,100403.22
2023-08-29T22:34:53.363Z,100398.00
2023-08-29T22:37:19.847Z,100396.53
2023-08-29T22:39:49.466Z,100392.25
2023-08-29T22:42:16.961Z,100389.78
2023-08-29T22:44:44.227Z,100395.56
2023-08-29T22:47:11.441Z,100402.00
2023-08-29T22:49:37.938Z,100381.38
2023-08-29T22:52:04.823Z,100392.94
2023-08-29T22:54:31.803Z,100393.28
2023-08-29T22:56:59.096Z,100393.88
2023-08-29T22:59:26.989Z,100390.09
2023-08-29T23:01:54.340Z,100384.97
2023-08-29T23:04:20.784Z,100389.16
2023-08-29T23:06:47.173Z,100382.69
2023-08-29T23:09:13.603Z,100376.38
2023-08-29T23:11:40.824Z,100380.16
2023-08-29T23:14:07.286Z,100370.53
2023-08-29T23:16:33.848Z,100375.59
2023-08-29T23:19:00.262Z,100373.34
2023-08-29T23:21:26.659Z,100375.31
2023-08-29T23:23:55.049Z,100381.22
2023-08-29T23:26:21.560Z,100377.91
2023-08-29T23:28:48.030Z,100374.41
2023-08-29T23:31:14.452Z,100376.84
2023-08-29T23:33:51.734Z,100370.34
2023-08-29T23:36:18.992Z,100388.09
2023-08-29T23:38:45.394Z,100381.00
2023-08-29T23:41:14.366Z,100378.34
2023-08-29T23:43:40.971Z,100380.25
2023-08-29T23:46:07.641Z,100365.88
2023-08-29T23:48:34.587Z,100367.00
2023-08-29T23:51:02.065Z,100366.84
2023-08-29T23:53:28.451Z,100358.47
2023-08-29T23:55:54.906Z,100363.59
2023-08-29T23:58:21.289Z,100358.78
